sensor_id;sensor_type;location;lat;lon;timestamp;temperature;humidity
37518;DHT22;23366;52.498;13.446;2023-01-16T00:02:12;4.90;99.90
37518;DHT22;23366;52.498;13.446;2023-01-16T00:04:37;5.00;99.90
37518;DHT22;23366;52.498;13.446;2023-01-16T00:07:03;5.00;99.90
37518;DHT22;23366;52.498;13.446;2023-01-16T00:09:28;5.10;99.90
37518;DHT22;23366;52.498;13.446;2023-01-16T00:11:54;5.10;99.90
37518;DHT22;23366;52.498;13.446;2023-01-16T00:14:20;5.10;99.90
37518;DHT22;23366;52.498;13.446;2023-01-16T00:16:45;5.10;99.90
37518;DHT22;23366;52.498;13.446;2023-01-16T00:19:11;5.20;99.90
37518;DHT22;23366;52.498;13.446;2023-01-16T00:21:36;5.20;99.90
37518;DHT22;23366;52.498;13.446;2023-01-16T00:24:02;5.20;99.90
37518;DHT22;23366;52.498;13.446;2023-01-16T00:26:28;5.20;99.90
37518;DHT22;23366;52.498;13.446;2023-01-16T00:28:54;5.30;99.90
37518;DHT22;23366;52.498;13.446;2023-01-16T00:31:20;5.30;99.90
37518;DHT22;23366;52.498;13.446;2023-01-16T00:33:48;5.20;99.90
37518;DHT22;23366;52.498;13.446;2023-01-16T00:36:14;5.30;99.90
37518;DHT22;23366;52.498;13.446;2023-01-16T00:38:39;5.30;99.90
37518;DHT22;23366;52.498;13.446;2023-01-16T00:41:05;5.30;99.90
37518;DHT22;23366;52.498;13.446;2023-01-16T00:43:31;5.30;99.90
37518;DHT22;23366;52.498;13.446;2023-01-16T00:45:57;5.30;99.90
37518;DHT22;23366;52.498;13.446;2023-01-16T00:48:23;5.30;99.90
37518;DHT22;23366;52.498;13.446;2023-01-16T00:50:49;5.30;99.90
37518;DHT22;23366;52.498;13.446;2023-01-16T00:53:15;5.30;99.90
37518;DHT22;23366;52.498;13.446;2023-01-16T00:55:41;5.30;99.90
37518;DHT22;23366;52.498;13.446;2023-01-16T00:58:07;5.20;99.90
37518;DHT22;23366;52.498;13.446;2023-01-16T01:00:33;5.20;99.90
37518;DHT22;23366;52.498;13.446;2023-01-16T01:02:58;5.20;99.90
37518;DHT22;23366;52.498;13.446;2023-01-16T01:05:24;5.20;99.90
37518;DHT22;23366;52.498;13.446;2023-01-16T01:07:49;5.20;99.90
37518;DHT22;23366;52.498;13.446;2023-01-16T01:10:15;5.20;99.90
37518;DHT22;23366;52.498;13.446;2023-01-16T01:12:40;5.20;99.90
37518;DHT22;23366;52.498;13.446;2023-01-16T01:15:06;5.10;99.90
37518;DHT22;23366;52.498;13.446;2023-01-16T01:17:32;5.00;99.90
37518;DHT22;23366;52.498;13.446;2023-01-16T01:19:58;5.00;99.90
37518;DHT22;23366;52.498;13.446;2023-01-16T01:22:23;5.00;99.90
37518;DHT22;23366;52.498;13.446;2023-01-16T01:24:49;5.00;99.90
37518;DHT22;23366;52.498;13.446;2023-01-16T01:27:16;4.90;99.90
37518;DHT22;23366;52.498;13.446;2023-01-16T01:29:42;4.80;99.90
37518;DHT22;23366;52.498;13.446;2023-01-16T01:32:07;4.80;99.90
37518;DHT22;23366;52.498;13.446;2023-01-16T01:34:33;4.80;99.90
37518;DHT22;23366;52.498;13.446;2023-01-16T01:37:03;4.70;99.90
37518;DHT22;23366;52.498;13.446;2023-01-16T01:39:29;4.70;99.90
37518;DHT22;23366;52.498;13.446;2023-01-16T01:41:55;4.70;99.90
37518;DHT22;23366;52.498;13.446;2023-01-16T01:47:13;4.60;99.90
37518;DHT22;23366;52.498;13.446;2023-01-16T01:49:39;4.60;99.90
37518;DHT22;23366;52.498;13.446;2023-01-16T01:52:06;4.60;99.90
37518;DHT22;23366;52.498;13.446;2023-01-16T01:54:36;4.60;99.90
37518;DHT22;23366;52.498;13.446;2023-01-16T01:57:10;4.60;99.90
37518;DHT22;23366;52.498;13.446;2023-01-16T01:59:40;4.60;99.90
37518;DHT22;23366;52.498;13.446;2023-01-16T02:02:09;4.60;99.90
37518;DHT22;23366;52.498;13.446;2023-01-16T02:04:40;4.60;99.90
37518;DHT22;23366;52.498;13.446;2023-01-16T02:07:08;4.60;99.90
37518;DHT22;23366;52.498;13.446;2023-01-16T02:09:35;4.60;99.90
37518;DHT22;23366;52.498;13.446;2023-01-16T02:12:08;4.70;99.90
37518;DHT22;23366;52.498;13.446;2023-01-16T02:14:37;4.70;99.90
37518;DHT22;23366;52.498;13.446;2023-01-16T02:17:17;4.80;99.90
37518;DHT22;23366;52.498;13.446;2023-01-16T02:20:23;4.80;99.90
37518;DHT22;23366;52.498;13.446;2023-01-16T02:26:20;4.90;99.90
37518;DHT22;23366;52.498;13.446;2023-01-16T02:34:33;4.80;99.90
37518;DHT22;23366;52.498;13.446;2023-01-16T02:37:09;4.80;99.90
37518;DHT22;23366;52.498;13.446;2023-01-16T02:39:38;4.90;99.90
37518;DHT22;23366;52.498;13.446;2023-01-16T02:42:16;5.00;99.90
37518;DHT22;23366;52.498;13.446;2023-01-16T02:47:55;5.00;99.90
37518;DHT22;23366;52.498;13.446;2023-01-16T02:53:23;4.90;99.90
37518;DHT22;23366;52.498;13.446;2023-01-16T02:56:12;4.80;99.90
37518;DHT22;23366;52.498;13.446;2023-01-16T02:58:43;4.70;99.90
37518;DHT22;23366;52.498;13.446;2023-01-16T03:01:10;4.70;99.90
37518;DHT22;23366;52.498;13.446;2023-01-16T03:12:11;4.70;99.90
37518;DHT22;23366;52.498;13.446;2023-01-16T03:14:55;4.70;99.90
37518;DHT22;23366;52.498;13.446;2023-01-16T03:17:45;4.70;99.90
37518;DHT22;23366;52.498;13.446;2023-01-16T03:20:33;4.70;99.90
37518;DHT22;23366;52.498;13.446;2023-01-16T03:23:18;4.70;99.90
37518;DHT22;23366;52.498;13.446;2023-01-16T03:25:59;4.70;99.90
37518;DHT22;23366;52.498;13.446;2023-01-16T03:31:37;4.70;99.90
37518;DHT22;23366;52.498;13.446;2023-01-16T03:34:09;4.70;99.90
37518;DHT22;23366;52.498;13.446;2023-01-16T03:39:18;4.80;99.90
37518;DHT22;23366;52.498;13.446;2023-01-16T03:41:47;4.70;99.90
37518;DHT22;23366;52.498;13.446;2023-01-16T03:44:24;4.70;99.90
37518;DHT22;23366;52.498;13.446;2023-01-16T03:46:55;4.70;99.90
37518;DHT22;23366;52.498;13.446;2023-01-16T03:49:26;4.60;99.90
37518;DHT22;23366;52.498;13.446;2023-01-16T03:51:56;4.60;99.90
37518;DHT22;23366;52.498;13.446;2023-01-16T03:54:36;4.50;99.90
37518;DHT22;23366;52.498;13.446;2023-01-16T03:57:11;4.50;99.90
37518;DHT22;23366;52.498;13.446;2023-01-16T03:59:38;4.50;99.90
37518;DHT22;23366;52.498;13.446;2023-01-16T04:02:12;4.50;99.90
37518;DHT22;23366;52.498;13.446;2023-01-16T04:07:58;4.50;99.90
37518;DHT22;23366;52.498;13.446;2023-01-16T04:10:36;4.50;99.90
37518;DHT22;23366;52.498;13.446;2023-01-16T04:13:20;4.50;99.90
37518;DHT22;23366;52.498;13.446;2023-01-16T04:15:50;4.60;99.90
37518;DHT22;23366;52.498;13.446;2023-01-16T04:18:16;4.60;99.90
37518;DHT22;23366;52.498;13.446;2023-01-16T04:20:45;4.50;99.90
37518;DHT22;23366;52.498;13.446;2023-01-16T04:23:13;4.40;99.90
37518;DHT22;23366;52.498;13.446;2023-01-16T04:25:39;4.40;99.90
37518;DHT22;23366;52.498;13.446;2023-01-16T04:28:04;4.40;99.90
37518;DHT22;23366;52.498;13.446;2023-01-16T04:30:30;4.30;99.90
37518;DHT22;23366;52.498;13.446;2023-01-16T04:32:55;4.30;99.90
37518;DHT22;23366;52.498;13.446;2023-01-16T04:35:21;4.30;99.90
37518;DHT22;23366;52.498;13.446;2023-01-16T04:37:46;4.20;99.90
37518;DHT22;23366;52.498;13.446;2023-01-16T04:40:12;4.10;99.90
37518;DHT22;23366;52.498;13.446;2023-01-16T04:42:37;4.10;99.90
37518;DHT22;23366;52.498;13.446;2023-01-16T04:45:04;4.10;99.90
37518;DHT22;23366;52.498;13.446;2023-01-16T04:47:29;4.20;99.90
37518;DHT22;23366;52.498;13.446;2023-01-16T04:49:55;4.20;99.90
37518;DHT22;23366;52.498;13.446;2023-01-16T04:52:20;4.20;99.90
37518;DHT22;23366;52.498;13.446;2023-01-16T04:54:46;4.20;99.90
37518;DHT22;23366;52.498;13.446;2023-01-16T04:57:11;4.20;99.90
37518;DHT22;23366;52.498;13.446;2023-01-16T04:59:37;4.10;99.90
37518;DHT22;23366;52.498;13.446;2023-01-16T05:02:03;4.10;99.90
37518;DHT22;23366;52.498;13.446;2023-01-16T05:04:28;4.10;99.90
37518;DHT22;23366;52.498;13.446;2023-01-16T05:06:54;4.00;99.90
37518;DHT22;23366;52.498;13.446;2023-01-16T05:09:19;4.00;99.90
37518;DHT22;23366;52.498;13.446;2023-01-16T05:11:45;4.00;99.90
37518;DHT22;23366;52.498;13.446;2023-01-16T05:14:10;4.00;99.90
37518;DHT22;23366;52.498;13.446;2023-01-16T05:16:37;4.00;99.90
37518;DHT22;23366;52.498;13.446;2023-01-16T05:19:03;4.00;99.90
37518;DHT22;23366;52.498;13.446;2023-01-16T05:21:30;4.00;99.90
37518;DHT22;23366;52.498;13.446;2023-01-16T05:23:55;4.00;99.90
37518;DHT22;23366;52.498;13.446;2023-01-16T05:26:21;3.90;99.90
37518;DHT22;23366;52.498;13.446;2023-01-16T05:28:47;4.00;99.90
37518;DHT22;23366;52.498;13.446;2023-01-16T05:31:13;4.00;99.90
37518;DHT22;23366;52.498;13.446;2023-01-16T05:33:38;4.00;99.90
37518;DHT22;23366;52.498;13.446;2023-01-16T05:36:04;4.00;99.90
37518;DHT22;23366;52.498;13.446;2023-01-16T05:38:30;4.10;99.90
37518;DHT22;23366;52.498;13.446;2023-01-16T05:40:55;4.00;99.90
37518;DHT22;23366;52.498;13.446;2023-01-16T05:43:21;4.10;99.90
37518;DHT22;23366;52.498;13.446;2023-01-16T05:45:46;4.10;99.90
37518;DHT22;23366;52.498;13.446;2023-01-16T05:48:12;4.10;99.90
37518;DHT22;23366;52.498;13.446;2023-01-16T05:50:37;4.00;99.90
37518;DHT22;23366;52.498;13.446;2023-01-16T05:53:06;4.00;99.90
37518;DHT22;23366;52.498;13.446;2023-01-16T05:55:38;4.10;99.90
37518;DHT22;23366;52.498;13.446;2023-01-16T05:58:04;4.10;99.90
37518;DHT22;23366;52.498;13.446;2023-01-16T06:00:30;4.10;99.90
37518;DHT22;23366;52.498;13.446;2023-01-16T06:02:55;4.10;99.90
37518;DHT22;23366;52.498;13.446;2023-01-16T06:05:21;4.00;99.90
37518;DHT22;23366;52.498;13.446;2023-01-16T06:07:46;4.00;99.90
37518;DHT22;23366;52.498;13.446;2023-01-16T06:10:12;4.00;99.90
37518;DHT22;23366;52.498;13.446;2023-01-16T06:12:39;4.00;99.90
37518;DHT22;23366;52.498;13.446;2023-01-16T06:15:04;4.00;99.90
37518;DHT22;23366;52.498;13.446;2023-01-16T06:17:30;4.00;99.90
37518;DHT22;23366;52.498;13.446;2023-01-16T06:19:56;4.10;99.90
37518;DHT22;23366;52.498;13.446;2023-01-16T06:22:22;4.00;99.90
37518;DHT22;23366;52.498;13.446;2023-01-16T06:24:48;4.10;99.90
37518;DHT22;23366;52.498;13.446;2023-01-16T06:27:13;4.10;99.90
37518;DHT22;23366;52.498;13.446;2023-01-16T06:29:39;4.10;99.90
37518;DHT22;23366;52.498;13.446;2023-01-16T06:32:08;4.10;99.90
37518;DHT22;23366;52.498;13.446;2023-01-16T06:34:33;4.10;99.90
37518;DHT22;23366;52.498;13.446;2023-01-16T06:36:59;4.10;99.90
37518;DHT22;23366;52.498;13.446;2023-01-16T06:39:24;4.10;99.90
37518;DHT22;23366;52.498;13.446;2023-01-16T06:41:50;4.00;99.90
37518;DHT22;23366;52.498;13.446;2023-01-16T06:44:15;4.10;99.90
37518;DHT22;23366;52.498;13.446;2023-01-16T06:46:41;4.10;99.90
37518;DHT22;23366;52.498;13.446;2023-01-16T06:49:07;4.10;99.90
37518;DHT22;23366;52.498;13.446;2023-01-16T06:51:32;4.00;99.90
37518;DHT22;23366;52.498;13.446;2023-01-16T06:53:58;4.00;99.90
37518;DHT22;23366;52.498;13.446;2023-01-16T06:56:23;4.00;99.90
37518;DHT22;23366;52.498;13.446;2023-01-16T06:58:49;4.10;99.90
37518;DHT22;23366;52.498;13.446;2023-01-16T07:01:15;4.10;99.90
37518;DHT22;23366;52.498;13.446;2023-01-16T07:03:40;4.10;99.90
37518;DHT22;23366;52.498;13.446;2023-01-16T07:06:06;4.00;99.90
37518;DHT22;23366;52.498;13.446;2023-01-16T07:08:32;4.10;99.90
37518;DHT22;23366;52.498;13.446;2023-01-16T07:10:59;4.00;99.90
37518;DHT22;23366;52.498;13.446;2023-01-16T07:13:25;4.10;99.90
37518;DHT22;23366;52.498;13.446;2023-01-16T07:15:52;4.10;99.90
37518;DHT22;23366;52.498;13.446;2023-01-16T07:18:36;4.10;99.90
37518;DHT22;23366;52.498;13.446;2023-01-16T07:21:24;4.10;99.90
37518;DHT22;23366;52.498;13.446;2023-01-16T07:24:11;4.10;99.90
37518;DHT22;23366;52.498;13.446;2023-01-16T07:26:40;4.10;99.90
37518;DHT22;23366;52.498;13.446;2023-01-16T07:29:07;4.10;99.90
37518;DHT22;23366;52.498;13.446;2023-01-16T07:31:33;4.10;99.90
37518;DHT22;23366;52.498;13.446;2023-01-16T07:33:59;4.20;99.90
37518;DHT22;23366;52.498;13.446;2023-01-16T07:36:25;4.20;99.90
37518;DHT22;23366;52.498;13.446;2023-01-16T07:38:50;4.20;99.90
37518;DHT22;23366;52.498;13.446;2023-01-16T07:41:16;4.10;99.90
37518;DHT22;23366;52.498;13.446;2023-01-16T07:43:41;4.10;99.90
37518;DHT22;23366;52.498;13.446;2023-01-16T07:46:07;4.10;99.90
37518;DHT22;23366;52.498;13.446;2023-01-16T07:48:33;4.00;99.90
37518;DHT22;23366;52.498;13.446;2023-01-16T07:50:59;4.10;99.90
37518;DHT22;23366;52.498;13.446;2023-01-16T07:53:27;4.10;99.90
37518;DHT22;23366;52.498;13.446;2023-01-16T07:55:56;4.10;99.90
37518;DHT22;23366;52.498;13.446;2023-01-16T07:58:22;4.10;99.90
37518;DHT22;23366;52.498;13.446;2023-01-16T08:00:48;4.10;99.90
37518;DHT22;23366;52.498;13.446;2023-01-16T08:03:15;4.10;99.90
37518;DHT22;23366;52.498;13.446;2023-01-16T08:05:41;4.20;99.90
37518;DHT22;23366;52.498;13.446;2023-01-16T08:08:09;4.20;99.90
37518;DHT22;23366;52.498;13.446;2023-01-16T08:10:34;4.20;99.90
37518;DHT22;23366;52.498;13.446;2023-01-16T08:13:00;4.20;99.90
37518;DHT22;23366;52.498;13.446;2023-01-16T08:15:26;4.30;99.90
37518;DHT22;23366;52.498;13.446;2023-01-16T08:17:51;4.30;99.90
37518;DHT22;23366;52.498;13.446;2023-01-16T08:20:17;4.40;99.90
37518;DHT22;23366;52.498;13.446;2023-01-16T08:22:47;4.40;99.90
37518;DHT22;23366;52.498;13.446;2023-01-16T08:25:13;4.40;99.90
37518;DHT22;23366;52.498;13.446;2023-01-16T08:27:39;4.40;99.90
37518;DHT22;23366;52.498;13.446;2023-01-16T08:30:06;4.40;99.90
37518;DHT22;23366;52.498;13.446;2023-01-16T08:32:32;4.40;99.90
37518;DHT22;23366;52.498;13.446;2023-01-16T08:34:57;4.50;99.90
37518;DHT22;23366;52.498;13.446;2023-01-16T08:37:23;4.60;99.90
37518;DHT22;23366;52.498;13.446;2023-01-16T08:39:48;4.70;99.90
37518;DHT22;23366;52.498;13.446;2023-01-16T08:42:14;4.70;99.90
37518;DHT22;23366;52.498;13.446;2023-01-16T08:44:58;4.70;99.90
37518;DHT22;23366;52.498;13.446;2023-01-16T08:47:42;4.70;99.90
37518;DHT22;23366;52.498;13.446;2023-01-16T08:50:27;4.80;99.90
37518;DHT22;23366;52.498;13.446;2023-01-16T08:53:11;4.80;99.90
37518;DHT22;23366;52.498;13.446;2023-01-16T08:55:37;4.90;99.90
37518;DHT22;23366;52.498;13.446;2023-01-16T08:58:04;5.00;99.90
37518;DHT22;23366;52.498;13.446;2023-01-16T09:00:30;5.10;99.90
37518;DHT22;23366;52.498;13.446;2023-01-16T09:02:55;5.20;99.90
37518;DHT22;23366;52.498;13.446;2023-01-16T09:05:23;5.30;99.90
37518;DHT22;23366;52.498;13.446;2023-01-16T09:07:49;5.20;99.90
37518;DHT22;23366;52.498;13.446;2023-01-16T09:10:15;5.30;99.90
37518;DHT22;23366;52.498;13.446;2023-01-16T09:12:41;5.40;99.90
37518;DHT22;23366;52.498;13.446;2023-01-16T09:15:25;5.40;99.90
37518;DHT22;23366;52.498;13.446;2023-01-16T09:17:51;5.40;99.90
37518;DHT22;23366;52.498;13.446;2023-01-16T09:20:17;5.40;99.90
37518;DHT22;23366;52.498;13.446;2023-01-16T09:22:43;5.40;99.90
37518;DHT22;23366;52.498;13.446;2023-01-16T09:25:08;5.40;99.90
37518;DHT22;23366;52.498;13.446;2023-01-16T09:27:34;5.40;99.90
37518;DHT22;23366;52.498;13.446;2023-01-16T09:30:00;5.30;99.90
37518;DHT22;23366;52.498;13.446;2023-01-16T09:32:26;5.20;99.90
37518;DHT22;23366;52.498;13.446;2023-01-16T09:34:51;5.20;99.90
37518;DHT22;23366;52.498;13.446;2023-01-16T09:37:17;5.30;99.90
37518;DHT22;23366;52.498;13.446;2023-01-16T09:39:43;5.30;99.90
37518;DHT22;23366;52.498;13.446;2023-01-16T09:42:39;5.40;99.90
37518;DHT22;23366;52.498;13.446;2023-01-16T09:45:30;5.50;99.90
37518;DHT22;23366;52.498;13.446;2023-01-16T09:48:03;5.50;99.90
37518;DHT22;23366;52.498;13.446;2023-01-16T09:50:38;5.60;99.90
37518;DHT22;23366;52.498;13.446;2023-01-16T09:53:10;5.60;99.90
37518;DHT22;23366;52.498;13.446;2023-01-16T09:55:57;5.60;99.90
37518;DHT22;23366;52.498;13.446;2023-01-16T09:58:48;5.60;99.90
37518;DHT22;23366;52.498;13.446;2023-01-16T10:01:20;5.70;99.90
37518;DHT22;23366;52.498;13.446;2023-01-16T10:03:47;5.80;99.90
37518;DHT22;23366;52.498;13.446;2023-01-16T10:06:24;5.90;99.90
37518;DHT22;23366;52.498;13.446;2023-01-16T10:11:45;5.90;99.90
37518;DHT22;23366;52.498;13.446;2023-01-16T10:14:26;5.90;99.90
37518;DHT22;23366;52.498;13.446;2023-01-16T10:20:08;6.00;99.90
37518;DHT22;23366;52.498;13.446;2023-01-16T10:23:03;6.00;99.90
37518;DHT22;23366;52.498;13.446;2023-01-16T10:26:04;6.10;99.90
37518;DHT22;23366;52.498;13.446;2023-01-16T10:28:46;6.20;99.90
37518;DHT22;23366;52.498;13.446;2023-01-16T10:31:27;6.30;99.90
37518;DHT22;23366;52.498;13.446;2023-01-16T10:36:30;6.50;99.90
37518;DHT22;23366;52.498;13.446;2023-01-16T10:38:58;6.40;99.90
37518;DHT22;23366;52.498;13.446;2023-01-16T10:44:34;6.50;99.90
37518;DHT22;23366;52.498;13.446;2023-01-16T10:47:23;6.60;99.90
37518;DHT22;23366;52.498;13.446;2023-01-16T10:50:09;6.60;99.90
37518;DHT22;23366;52.498;13.446;2023-01-16T10:52:35;6.60;99.90
37518;DHT22;23366;52.498;13.446;2023-01-16T10:55:02;6.60;99.90
37518;DHT22;23366;52.498;13.446;2023-01-16T10:57:28;6.60;99.90
37518;DHT22;23366;52.498;13.446;2023-01-16T10:59:59;6.60;99.90
37518;DHT22;23366;52.498;13.446;2023-01-16T11:02:30;6.60;99.90
37518;DHT22;23366;52.498;13.446;2023-01-16T11:04:59;6.70;99.90
37518;DHT22;23366;52.498;13.446;2023-01-16T11:07:28;6.70;99.90
37518;DHT22;23366;52.498;13.446;2023-01-16T11:09:54;6.70;99.90
37518;DHT22;23366;52.498;13.446;2023-01-16T11:12:27;6.70;99.90
37518;DHT22;23366;52.498;13.446;2023-01-16T11:15:16;6.80;99.90
37518;DHT22;23366;52.498;13.446;2023-01-16T11:18:00;6.80;99.90
37518;DHT22;23366;52.498;13.446;2023-01-16T11:20:45;6.80;99.90
37518;DHT22;23366;52.498;13.446;2023-01-16T11:25:37;6.90;99.90
37518;DHT22;23366;52.498;13.446;2023-01-16T11:28:06;6.90;99.90
37518;DHT22;23366;52.498;13.446;2023-01-16T11:30:43;6.90;99.90
37518;DHT22;23366;52.498;13.446;2023-01-16T11:33:16;7.00;99.90
37518;DHT22;23366;52.498;13.446;2023-01-16T11:35:51;6.90;99.90
37518;DHT22;23366;52.498;13.446;2023-01-16T11:38:18;6.90;99.90
37518;DHT22;23366;52.498;13.446;2023-01-16T11:40:45;7.00;99.90
37518;DHT22;23366;52.498;13.446;2023-01-16T11:43:14;7.00;99.90
37518;DHT22;23366;52.498;13.446;2023-01-16T11:45:58;7.00;99.90
37518;DHT22;23366;52.498;13.446;2023-01-16T11:48:42;7.00;99.90
37518;DHT22;23366;52.498;13.446;2023-01-16T11:51:16;7.00;99.90
37518;DHT22;23366;52.498;13.446;2023-01-16T11:53:44;7.10;99.90
37518;DHT22;23366;52.498;13.446;2023-01-16T11:56:52;7.10;99.90
37518;DHT22;23366;52.498;13.446;2023-01-16T11:59:33;7.00;99.90
37518;DHT22;23366;52.498;13.446;2023-01-16T12:13:52;7.00;99.90
37518;DHT22;23366;52.498;13.446;2023-01-16T12:22:08;7.00;99.90
37518;DHT22;23366;52.498;13.446;2023-01-16T12:33:13;7.00;99.90
37518;DHT22;23366;52.498;13.446;2023-01-16T12:41:19;6.90;99.90
37518;DHT22;23366;52.498;13.446;2023-01-16T12:49:42;7.00;99.90
37518;DHT22;23366;52.498;13.446;2023-01-16T12:52:43;7.00;99.90
37518;DHT22;23366;52.498;13.446;2023-01-16T12:55:25;7.00;99.90
37518;DHT22;23366;52.498;13.446;2023-01-16T12:58:09;7.10;99.90
37518;DHT22;23366;52.498;13.446;2023-01-16T13:03:38;7.10;99.90
37518;DHT22;23366;52.498;13.446;2023-01-16T13:06:09;7.10;99.90
37518;DHT22;23366;52.498;13.446;2023-01-16T13:08:40;7.10;99.90
37518;DHT22;23366;52.498;13.446;2023-01-16T13:11:15;7.20;99.90
37518;DHT22;23366;52.498;13.446;2023-01-16T13:14:03;7.20;99.90
37518;DHT22;23366;52.498;13.446;2023-01-16T13:16:37;7.10;99.90
37518;DHT22;23366;52.498;13.446;2023-01-16T13:19:18;7.10;99.90
37518;DHT22;23366;52.498;13.446;2023-01-16T13:24:50;7.10;99.90
37518;DHT22;23366;52.498;13.446;2023-01-16T13:27:22;7.10;99.90
37518;DHT22;23366;52.498;13.446;2023-01-16T13:29:59;7.10;99.90
37518;DHT22;23366;52.498;13.446;2023-01-16T13:35:00;7.10;99.90
37518;DHT22;23366;52.498;13.446;2023-01-16T13:40:31;7.10;99.90
37518;DHT22;23366;52.498;13.446;2023-01-16T13:43:02;7.10;99.90
37518;DHT22;23366;52.498;13.446;2023-01-16T13:45:48;7.10;99.90
37518;DHT22;23366;52.498;13.446;2023-01-16T13:48:21;7.10;99.90
37518;DHT22;23366;52.498;13.446;2023-01-16T13:50:56;7.10;99.90
37518;DHT22;23366;52.498;13.446;2023-01-16T13:53:25;7.00;99.90
37518;DHT22;23366;52.498;13.446;2023-01-16T13:56:19;7.00;99.90
37518;DHT22;23366;52.498;13.446;2023-01-16T13:58:52;7.00;99.90
37518;DHT22;23366;52.498;13.446;2023-01-16T14:06:50;7.00;99.90
37518;DHT22;23366;52.498;13.446;2023-01-16T14:12:35;6.90;99.90
37518;DHT22;23366;52.498;13.446;2023-01-16T14:15:21;6.90;99.90
37518;DHT22;23366;52.498;13.446;2023-01-16T14:18:18;6.90;99.90
37518;DHT22;23366;52.498;13.446;2023-01-16T14:21:02;6.90;99.90
37518;DHT22;23366;52.498;13.446;2023-01-16T14:23:31;6.80;99.90
37518;DHT22;23366;52.498;13.446;2023-01-16T14:26:30;6.80;99.90
37518;DHT22;23366;52.498;13.446;2023-01-16T14:29:00;6.70;99.90
37518;DHT22;23366;52.498;13.446;2023-01-16T14:31:35;6.60;99.90
37518;DHT22;23366;52.498;13.446;2023-01-16T14:34:02;6.70;99.90
37518;DHT22;23366;52.498;13.446;2023-01-16T14:36:28;6.60;99.90
37518;DHT22;23366;52.498;13.446;2023-01-16T14:38:58;6.50;99.90
37518;DHT22;23366;52.498;13.446;2023-01-16T14:41:29;6.60;99.90
37518;DHT22;23366;52.498;13.446;2023-01-16T14:44:18;6.60;99.90
37518;DHT22;23366;52.498;13.446;2023-01-16T14:50:15;6.50;99.90
37518;DHT22;23366;52.498;13.446;2023-01-16T15:01:31;6.30;99.90
37518;DHT22;23366;52.498;13.446;2023-01-16T15:04:19;6.30;99.90
37518;DHT22;23366;52.498;13.446;2023-01-16T15:06:55;6.20;99.90
37518;DHT22;23366;52.498;13.446;2023-01-16T15:09:27;6.20;99.90
37518;DHT22;23366;52.498;13.446;2023-01-16T15:12:00;6.20;99.90
37518;DHT22;23366;52.498;13.446;2023-01-16T15:14:26;6.20;99.90
37518;DHT22;23366;52.498;13.446;2023-01-16T15:20:17;6.10;99.90
37518;DHT22;23366;52.498;13.446;2023-01-16T15:23:05;6.10;99.90
37518;DHT22;23366;52.498;13.446;2023-01-16T15:26:06;6.10;99.90
37518;DHT22;23366;52.498;13.446;2023-01-16T15:31:31;6.00;99.90
37518;DHT22;23366;52.498;13.446;2023-01-16T15:34:00;6.00;99.90
37518;DHT22;23366;52.498;13.446;2023-01-16T15:39:16;5.90;99.90
37518;DHT22;23366;52.498;13.446;2023-01-16T15:44:50;5.80;99.90
37518;DHT22;23366;52.498;13.446;2023-01-16T15:51:00;5.80;99.90
37518;DHT22;23366;52.498;13.446;2023-01-16T15:53:34;5.80;99.90
37518;DHT22;23366;52.498;13.446;2023-01-16T15:56:07;5.80;99.90
37518;DHT22;23366;52.498;13.446;2023-01-16T15:58:35;5.80;99.90
37518;DHT22;23366;52.498;13.446;2023-01-16T16:01:04;5.80;99.90
37518;DHT22;23366;52.498;13.446;2023-01-16T16:03:41;5.70;99.90
37518;DHT22;23366;52.498;13.446;2023-01-16T16:06:10;5.70;99.90
37518;DHT22;23366;52.498;13.446;2023-01-16T16:08:44;5.70;99.90
37518;DHT22;23366;52.498;13.446;2023-01-16T16:11:21;5.70;99.90
37518;DHT22;23366;52.498;13.446;2023-01-16T16:14:07;5.70;99.90
37518;DHT22;23366;52.498;13.446;2023-01-16T16:17:01;5.70;99.90
37518;DHT22;23366;52.498;13.446;2023-01-16T16:19:45;5.60;99.90
37518;DHT22;23366;52.498;13.446;2023-01-16T16:22:11;5.60;99.90
37518;DHT22;23366;52.498;13.446;2023-01-16T16:24:55;5.60;99.90
37518;DHT22;23366;52.498;13.446;2023-01-16T16:27:21;5.60;99.90
37518;DHT22;23366;52.498;13.446;2023-01-16T16:29:51;5.50;99.90
37518;DHT22;23366;52.498;13.446;2023-01-16T16:32:18;5.50;99.90
37518;DHT22;23366;52.498;13.446;2023-01-16T16:34:55;5.50;99.90
37518;DHT22;23366;52.498;13.446;2023-01-16T16:37:22;5.50;99.90
37518;DHT22;23366;52.498;13.446;2023-01-16T16:45:13;5.40;99.90
37518;DHT22;23366;52.498;13.446;2023-01-16T16:47:45;5.40;99.90
37518;DHT22;23366;52.498;13.446;2023-01-16T16:50:35;5.30;99.90
37518;DHT22;23366;52.498;13.446;2023-01-16T16:53:13;5.40;99.90
37518;DHT22;23366;52.498;13.446;2023-01-16T16:55:40;5.40;99.90
37518;DHT22;23366;52.498;13.446;2023-01-16T16:58:17;5.30;99.90
37518;DHT22;23366;52.498;13.446;2023-01-16T17:00:44;5.30;99.90
37518;DHT22;23366;52.498;13.446;2023-01-16T17:03:21;5.30;99.90
37518;DHT22;23366;52.498;13.446;2023-01-16T17:05:48;5.30;99.90
37518;DHT22;23366;52.498;13.446;2023-01-16T17:08:19;5.20;99.90
37518;DHT22;23366;52.498;13.446;2023-01-16T17:10:45;5.30;99.90
37518;DHT22;23366;52.498;13.446;2023-01-16T17:13:15;5.20;99.90
37518;DHT22;23366;52.498;13.446;2023-01-16T17:15:42;5.20;99.90
37518;DHT22;23366;52.498;13.446;2023-01-16T17:18:10;5.20;99.90
37518;DHT22;23366;52.498;13.446;2023-01-16T17:20:36;5.20;99.90
37518;DHT22;23366;52.498;13.446;2023-01-16T17:23:11;5.20;99.90
37518;DHT22;23366;52.498;13.446;2023-01-16T17:25:37;5.20;99.90
37518;DHT22;23366;52.498;13.446;2023-01-16T17:28:03;5.20;99.90
37518;DHT22;23366;52.498;13.446;2023-01-16T17:30:28;5.20;99.90
37518;DHT22;23366;52.498;13.446;2023-01-16T17:35:37;5.10;99.90
37518;DHT22;23366;52.498;13.446;2023-01-16T17:38:10;5.10;99.90
37518;DHT22;23366;52.498;13.446;2023-01-16T17:40:36;5.10;99.90
37518;DHT22;23366;52.498;13.446;2023-01-16T17:43:03;5.00;99.90
37518;DHT22;23366;52.498;13.446;2023-01-16T17:45:50;5.00;99.90
37518;DHT22;23366;52.498;13.446;2023-01-16T17:48:26;5.00;99.90
37518;DHT22;23366;52.498;13.446;2023-01-16T17:54:15;5.00;99.90
37518;DHT22;23366;52.498;13.446;2023-01-16T17:57:00;5.10;99.90
37518;DHT22;23366;52.498;13.446;2023-01-16T17:59:25;5.10;99.90
37518;DHT22;23366;52.498;13.446;2023-01-16T18:01:52;5.10;99.90
37518;DHT22;23366;52.498;13.446;2023-01-16T18:04:19;5.10;99.90
37518;DHT22;23366;52.498;13.446;2023-01-16T18:06:44;5.10;99.90
37518;DHT22;23366;52.498;13.446;2023-01-16T18:09:11;5.10;99.90
37518;DHT22;23366;52.498;13.446;2023-01-16T18:11:39;5.10;99.90
37518;DHT22;23366;52.498;13.446;2023-01-16T18:14:24;5.20;99.90
37518;DHT22;23366;52.498;13.446;2023-01-16T18:17:13;5.20;99.90
37518;DHT22;23366;52.498;13.446;2023-01-16T18:19:56;5.20;99.90
37518;DHT22;23366;52.498;13.446;2023-01-16T18:22:23;5.20;99.90